Huvudsida
METAR-TAF:

METAR-TAF

Flygplatser :

Hang Nadim Airport

Batam, Indonesien

latitud: 01-07-15N, longitud: 104-07-07E, höjd: 38 m

Aktuellt väderrapport

Denna rapport gjordes för 34 minuter sedan, klockan 05:30 UTC
Vind 10 kt från sydost
Temperatur 31°C
Fuktighet 66%
Tryck 1010 hPa
Sikt 10 km eller mer
Få moln på en höjd av 1400 ft

METAR: WIDD 190530Z 13010KT 9999 FEW014 31/24 Q1010 NOSIG

Tid: 13:04 (06:04 UTC)

Väderprognos

Denna rapport gjordes för 1 timme och 4 minuter sedan, klockan 05:00 UTC
Prognos gäller från 19 kl. 06 UTC till 20 kl. 06 UTC
Vind 12 kt från syd/sydost
Sikt 10 km eller mer
Spridda moln på en höjd av 1400 ft
Blir
från 19 kl. 12 UTC till 19 kl. 14 UTC
Vind 5 kt från syd/sydost

TAF: WIDD 190500Z 1906/2006 15012KT 9999 SCT014 BECMG 1912/1914 15005KT

Aktuella väderrapporter och prognoser från 4000 flygplatser (METAR- och TAF-rapporter).

De tillgängliga stationerna syns som gula och röda prickar på kartan.

För musen över prickarna för att se namnen på stationerna.

Klicka sedan för att få väderrapporter och prognoser.

För att ändra kartan: Klicka på de gröna knapparna med ett svart kors på för att zooma in; den gröna knappen med ett streck på för att zooma ut; eller på de gröna pilarna för angränsande kartor.


METAR-TAF: